Kosmos, Washington
Current Conditions -  °F | °C
As of 12:15 AM on Saturday 25 Oct 2014 (Local Time) from KCLS Reporting Station
Overcast Overcast  
Wind Chill: 52°   Ceiling: 800
Heat Index: 52°   Visibility: 10mi
Dew Point: 52°   Wind: 6mph
Humidity: 100%   Direction: 20°NNE
Pressure: 29.7"   Gusts: NA
Location:  46.5485°N, 122.112°W
Report Text: KCLS 250715Z AUTO 02005KT 10SM OVC008 11/11 A2970 RMK AO2
Loading
Personal Weather Stations






























Interactive Weather Map
Tropical Storm Tracking
New forecast layout! Learn more

10-Day Weather Forecast

Advertisements
Track Severe Weather on mobile